createdAt,value
2018-11-20T00:00:55.793Z,5.40
2018-11-20T00:03:31.800Z,5.17
2018-11-20T00:06:08.847Z,5.20
2018-11-20T00:08:44.929Z,5.07
2018-11-20T00:11:19.197Z,5.23
2018-11-20T00:13:53.297Z,4.80
2018-11-20T00:17:23.397Z,5.00
2018-11-20T00:20:10.119Z,5.40
2018-11-20T00:22:58.045Z,4.90
2018-11-20T00:25:49.900Z,5.30
2018-11-20T00:28:35.056Z,5.80
2018-11-20T00:31:21.345Z,5.30
2018-11-20T00:34:12.882Z,6.23
2018-11-20T00:36:59.387Z,5.43
2018-11-20T00:39:37.487Z,5.63
2018-11-20T00:45:20.529Z,5.47
2018-11-20T00:48:07.975Z,5.00
2018-11-20T00:50:53.126Z,5.03
2018-11-20T00:53:39.415Z,5.17
2018-11-20T00:56:50.521Z,4.80
2018-11-20T00:59:36.924Z,5.30
2018-11-20T01:02:24.481Z,5.00
2018-11-20T01:05:24.232Z,5.53
2018-11-20T01:08:10.061Z,5.30
2018-11-20T01:10:56.240Z,5.10
2018-11-20T01:13:55.583Z,4.90
2018-11-20T01:17:01.552Z,4.70
2018-11-20T01:19:47.836Z,4.53
2018-11-20T01:22:50.356Z,5.77
2018-11-20T01:25:46.073Z,4.50
2018-11-20T01:28:26.520Z,4.67
2018-11-20T01:31:13.030Z,5.57
2018-11-20T01:34:02.959Z,5.13
2018-11-20T01:36:50.283Z,4.67
2018-11-20T01:39:46.364Z,4.83
2018-11-20T01:42:32.693Z,4.83
2018-11-20T01:45:11.867Z,5.20
2018-11-20T01:47:59.303Z,5.03
2018-11-20T01:50:36.382Z,5.20
2018-11-20T01:53:20.965Z,5.53
2018-11-20T01:56:07.335Z,5.10
2018-11-20T01:59:04.201Z,5.10
2018-11-20T02:01:50.547Z,5.20
2018-11-20T02:04:35.331Z,4.70
2018-11-20T02:07:15.615Z,5.57
2018-11-20T02:10:21.176Z,5.00
2018-11-20T02:13:44.452Z,5.27
2018-11-20T02:16:40.432Z,5.63
2018-11-20T02:19:33.980Z,5.50
2018-11-20T02:22:21.761Z,4.50
2018-11-20T02:25:12.169Z,5.57
2018-11-20T02:28:08.484Z,5.90
2018-11-20T02:30:49.533Z,5.40
2018-11-20T02:33:36.973Z,5.07
2018-11-20T02:36:24.906Z,4.80
2018-11-20T02:39:11.294Z,5.43
2018-11-20T02:42:01.474Z,5.30
2018-11-20T02:44:47.479Z,5.73
2018-11-20T02:47:41.002Z,5.57
2018-11-20T02:50:46.391Z,5.30
2018-11-20T02:53:32.653Z,4.80
2018-11-20T02:56:25.978Z,5.33
2018-11-20T02:59:12.088Z,6.10
2018-11-20T03:02:08.386Z,5.20
2018-11-20T03:04:54.609Z,5.53
2018-11-20T03:07:47.844Z,5.53
2018-11-20T03:10:38.043Z,5.40
2018-11-20T03:13:37.207Z,5.20
2018-11-20T03:16:27.516Z,5.40
2018-11-20T03:19:17.548Z,5.33
2018-11-20T03:22:16.832Z,5.53
2018-11-20T03:25:03.071Z,5.63
2018-11-20T03:27:39.160Z,5.50
2018-11-20T03:31:16.655Z,5.17
2018-11-20T03:34:21.545Z,5.33
2018-11-20T03:37:08.037Z,6.07
2018-11-20T03:39:56.644Z,5.40
2018-11-20T03:42:40.285Z,4.70
2018-11-20T03:45:17.671Z,5.17
2018-11-20T03:48:04.171Z,5.97
2018-11-20T03:51:06.554Z,6.30
2018-11-20T03:53:49.052Z,5.70
2018-11-20T03:56:29.596Z,6.33
2018-11-20T03:59:15.726Z,5.40
2018-11-20T04:01:50.303Z,6.40
2018-11-20T04:04:40.660Z,5.37
2018-11-20T04:07:28.067Z,5.73
2018-11-20T04:10:24.791Z,5.60
2018-11-20T04:13:12.241Z,5.47
2018-11-20T04:15:58.490Z,5.23
2018-11-20T04:18:51.599Z,6.70
2018-11-20T04:21:44.937Z,4.93
2018-11-20T04:24:31.272Z,5.37
2018-11-20T04:27:21.676Z,5.43
2018-11-20T04:31:05.363Z,5.30
2018-11-20T04:34:12.921Z,5.00
2018-11-20T04:37:01.693Z,5.23
2018-11-20T04:39:58.067Z,5.17
2018-11-20T04:42:44.076Z,4.97
2018-11-20T04:45:30.318Z,5.57
2018-11-20T04:48:29.895Z,6.00
2018-11-20T04:51:16.230Z,5.67
2018-11-20T04:54:03.638Z,5.50
2018-11-20T04:56:54.076Z,4.87
2018-11-20T04:59:39.944Z,4.93
2018-11-20T05:02:17.309Z,4.57
2018-11-20T05:05:04.857Z,5.30
2018-11-20T05:07:51.340Z,5.50
2018-11-20T05:10:38.784Z,5.20
2018-11-20T05:13:26.281Z,5.63
2018-11-20T05:16:10.358Z,6.47
2018-11-20T05:19:12.934Z,4.80
2018-11-20T05:22:10.287Z,5.10
2018-11-20T05:24:56.409Z,4.60
2018-11-20T05:27:52.779Z,5.30
2018-11-20T05:30:36.660Z,5.80
2018-11-20T05:33:26.587Z,4.87
2018-11-20T05:36:14.024Z,5.17
2018-11-20T05:39:16.598Z,4.83
2018-11-20T05:41:59.971Z,5.27
2018-11-20T05:44:46.339Z,5.10
2018-11-20T05:47:27.856Z,5.90
2018-11-20T05:50:22.550Z,5.10
2018-11-20T05:53:25.219Z,5.60
2018-11-20T05:56:10.102Z,5.20
2018-11-20T05:58:57.294Z,5.33
2018-11-20T06:01:53.867Z,5.33
2018-11-20T06:04:44.261Z,5.57
2018-11-20T06:07:37.669Z,5.47
2018-11-20T06:10:31.318Z,5.50
2018-11-20T06:13:13.868Z,5.60
2018-11-20T06:16:01.313Z,6.07
2018-11-20T06:18:47.791Z,5.77
2018-11-20T06:21:27.977Z,30.77
2018-11-20T06:24:06.982Z,43.80
2018-11-20T06:26:52.843Z,39.57
2018-11-20T06:29:52.067Z,43.57
2018-11-20T06:32:43.818Z,38.57
2018-11-20T06:35:29.915Z,34.60
2018-11-20T06:38:16.386Z,28.10
2018-11-20T06:41:15.470Z,21.10
2018-11-20T06:44:05.421Z,21.45
2018-11-20T06:46:51.511Z,16.40
2018-11-20T06:49:38.812Z,18.97
2018-11-20T06:52:24.759Z,18.20
2018-11-20T06:55:05.016Z,16.87
2018-11-20T06:57:51.335Z,17.93
2018-11-20T07:00:37.275Z,17.70
2018-11-20T07:03:23.543Z,16.80
2018-11-20T07:06:07.243Z,15.07
2018-11-20T07:08:53.153Z,15.40
2018-11-20T07:11:39.038Z,16.00
2018-11-20T07:14:35.882Z,15.93
2018-11-20T07:17:33.282Z,15.10
2018-11-20T07:20:19.890Z,15.30
2018-11-20T07:23:13.269Z,15.50
2018-11-20T07:26:12.589Z,13.30
2018-11-20T07:28:52.656Z,12.70
2018-11-20T07:31:38.045Z,13.40
2018-11-20T07:34:33.655Z,12.87
2018-11-20T07:37:19.703Z,12.37
2018-11-20T07:40:05.686Z,12.63
2018-11-20T07:42:49.569Z,11.37
2018-11-20T07:45:35.651Z,11.50
2018-11-20T07:48:34.717Z,12.53
2018-11-20T07:51:20.833Z,12.00
2018-11-20T07:54:23.633Z,11.57
2018-11-20T07:57:17.142Z,10.13
2018-11-20T08:00:03.401Z,8.47
2018-11-20T08:02:49.472Z,8.20
2018-11-20T08:05:57.500Z,8.80
2018-11-20T08:08:44.950Z,9.50
2018-11-20T08:11:30.976Z,9.50
2018-11-20T08:14:17.313Z,9.07
2018-11-20T08:17:04.721Z,9.30
2018-11-20T08:19:55.283Z,8.57
2018-11-20T08:22:40.615Z,9.20
2018-11-20T08:25:41.154Z,8.93
2018-11-20T08:28:34.088Z,8.83
2018-11-20T08:31:21.506Z,9.50
2018-11-20T08:34:09.103Z,7.70
2018-11-20T08:36:56.146Z,8.10
2018-11-20T08:39:42.243Z,7.93
2018-11-20T08:42:28.477Z,8.50
2018-11-20T08:45:14.456Z,7.70
2018-11-20T08:48:13.916Z,8.63
2018-11-20T08:51:01.324Z,8.17
2018-11-20T08:53:48.845Z,8.10
2018-11-20T08:56:36.607Z,8.33
2018-11-20T08:59:24.026Z,7.70
2018-11-20T09:02:10.363Z,8.83
2018-11-20T09:05:12.807Z,7.17
2018-11-20T09:08:06.273Z,7.13
2018-11-20T09:11:02.588Z,7.37
2018-11-20T09:13:48.696Z,8.00
2018-11-20T09:16:33.550Z,7.17
2018-11-20T09:19:33.145Z,7.07
2018-11-20T09:22:19.452Z,8.47
2018-11-20T09:25:09.667Z,7.43
2018-11-20T09:28:15.553Z,7.30
2018-11-20T09:31:04.064Z,7.63
2018-11-20T09:33:43.413Z,7.17
2018-11-20T09:36:34.214Z,7.33
2018-11-20T09:39:27.516Z,7.40
2018-11-20T09:42:21.722Z,6.60
2018-11-20T09:45:43.116Z,6.90
2018-11-20T09:48:36.263Z,7.10
2018-11-20T09:51:39.153Z,6.77
2018-11-20T09:54:31.365Z,7.27
2018-11-20T09:57:07.281Z,7.37
2018-11-20T09:59:53.160Z,6.77
2018-11-20T10:02:46.323Z,7.20
2018-11-20T10:05:32.629Z,6.60
2018-11-20T10:08:20.044Z,5.90
2018-11-20T10:11:17.520Z,6.80
2018-11-20T10:13:59.392Z,6.40
2018-11-20T10:16:45.295Z,5.97
2018-11-20T10:19:41.824Z,6.50
2018-11-20T10:22:28.474Z,6.70
2018-11-20T10:25:30.950Z,6.70
2018-11-20T10:28:19.361Z,5.90
2018-11-20T10:31:05.486Z,6.03
2018-11-20T10:34:08.334Z,6.20
2018-11-20T10:36:54.621Z,5.93
2018-11-20T10:39:41.113Z,5.77
2018-11-20T10:42:23.243Z,6.10
2018-11-20T10:45:13.310Z,6.30
2018-11-20T10:47:59.359Z,6.47
2018-11-20T10:50:45.496Z,5.70
2018-11-20T10:53:32.898Z,5.80
2018-11-20T10:56:19.258Z,6.10
2018-11-20T10:59:21.751Z,5.33
2018-11-20T11:02:07.573Z,5.47
2018-11-20T11:05:13.421Z,5.00
2018-11-20T11:08:00.929Z,6.00
2018-11-20T11:11:00.311Z,5.70
2018-11-20T11:13:47.000Z,6.67
2018-11-20T11:16:33.039Z,5.57
2018-11-20T11:19:19.035Z,6.40
2018-11-20T11:21:59.949Z,5.83
2018-11-20T11:24:46.006Z,4.70
2018-11-20T11:27:31.856Z,5.40
2018-11-20T11:30:08.210Z,6.10
2018-11-20T11:32:47.848Z,5.47
2018-11-20T11:35:34.183Z,5.80
2018-11-20T11:38:24.618Z,5.63
2018-11-20T11:41:23.677Z,5.60
2018-11-20T11:44:20.410Z,6.40
2018-11-20T11:47:22.773Z,6.00
2018-11-20T11:50:08.921Z,5.20
2018-11-20T11:53:05.198Z,5.43
2018-11-20T11:56:11.004Z,5.27
2018-11-20T11:58:58.387Z,4.53
2018-11-20T12:04:22.527Z,4.73
2018-11-20T12:07:08.782Z,5.00
2018-11-20T12:10:11.620Z,4.87
2018-11-20T12:12:57.807Z,5.63
2018-11-20T12:15:49.363Z,5.47
2018-11-20T12:18:35.663Z,4.30
2018-11-20T12:21:23.091Z,4.77
2018-11-20T12:24:19.198Z,4.70
2018-11-20T12:26:59.780Z,4.70
2018-11-20T12:29:46.077Z,4.63
2018-11-20T12:32:28.371Z,4.70
2018-11-20T12:35:15.620Z,4.97
2018-11-20T12:38:10.687Z,5.23
2018-11-20T12:40:57.054Z,5.30
2018-11-20T12:43:43.394Z,4.90
2018-11-20T12:46:32.253Z,5.73
2018-11-20T12:49:14.530Z,5.03
2018-11-20T12:52:17.057Z,4.90
2018-11-20T12:55:10.547Z,4.90
2018-11-20T12:57:55.549Z,5.40
2018-11-20T13:00:48.882Z,4.90
2018-11-20T13:03:36.307Z,4.23
2018-11-20T13:06:22.810Z,4.80
2018-11-20T13:09:10.250Z,4.70
2018-11-20T13:12:10.000Z,4.30
2018-11-20T13:14:56.592Z,4.53
2018-11-20T13:17:42.728Z,5.07
2018-11-20T13:20:41.922Z,4.97
2018-11-20T13:23:38.587Z,4.20
2018-11-20T13:26:14.025Z,4.50
2018-11-20T13:28:54.307Z,3.87
2018-11-20T13:31:53.841Z,3.70
2018-11-20T13:34:32.225Z,4.27
2018-11-20T13:37:25.502Z,4.10
2018-11-20T13:40:19.764Z,4.13
2018-11-20T13:43:13.584Z,5.03
2018-11-20T13:45:59.143Z,4.43
2018-11-20T13:48:49.153Z,4.57
2018-11-20T13:51:47.045Z,5.27
2018-11-20T13:54:33.411Z,4.53
2018-11-20T13:57:15.542Z,4.03
2018-11-20T14:00:05.811Z,4.60
2018-11-20T14:02:52.975Z,4.00
2018-11-20T14:05:49.445Z,4.03
2018-11-20T14:08:39.490Z,4.20
2018-11-20T14:11:14.317Z,3.90
2018-11-20T14:13:53.057Z,3.77
2018-11-20T14:16:55.589Z,3.83
2018-11-20T14:19:46.081Z,3.97
2018-11-20T14:22:39.499Z,3.97
2018-11-20T14:25:39.851Z,3.10
2018-11-20T14:28:14.276Z,4.40
2018-11-20T14:31:02.322Z,3.70
2018-11-20T14:34:05.141Z,4.23
2018-11-20T14:36:51.308Z,3.80
2018-11-20T14:39:51.003Z,3.70
2018-11-20T14:42:35.915Z,4.00
2018-11-20T14:45:22.228Z,3.90
2018-11-20T14:48:15.897Z,4.27
2018-11-20T14:50:57.780Z,3.50
2018-11-20T14:53:47.893Z,3.97
2018-11-20T14:56:32.926Z,4.40
2018-11-20T14:59:20.382Z,3.60
2018-11-20T15:02:20.167Z,3.63
2018-11-20T15:05:06.017Z,3.70
2018-11-20T15:07:59.308Z,3.77
2018-11-20T15:10:42.986Z,3.60
2018-11-20T15:13:30.406Z,3.30
2018-11-20T15:16:20.551Z,3.50
2018-11-20T15:19:04.636Z,4.17
2018-11-20T15:21:50.948Z,4.00
2018-11-20T15:24:37.104Z,3.93
2018-11-20T15:27:23.307Z,3.03
2018-11-20T15:30:22.536Z,3.50
2018-11-20T15:33:09.952Z,3.60
2018-11-20T15:35:55.319Z,3.23
2018-11-20T15:38:42.724Z,3.90
2018-11-20T15:41:33.078Z,3.30
2018-11-20T15:44:29.338Z,3.70
2018-11-20T15:47:22.391Z,4.17
2018-11-20T15:50:27.904Z,3.47
2018-11-20T15:53:21.378Z,4.10
2018-11-20T15:56:07.435Z,4.40
2018-11-20T15:59:04.242Z,3.40
2018-11-20T16:01:51.278Z,3.70
2018-11-20T16:04:37.788Z,3.60
2018-11-20T16:07:17.112Z,4.03
2018-11-20T16:09:53.772Z,3.60
2018-11-20T16:12:41.811Z,3.60
2018-11-20T16:15:32.015Z,3.73
2018-11-20T16:18:21.974Z,4.37
2018-11-20T16:21:08.384Z,3.93
2018-11-20T16:23:54.984Z,3.73
2018-11-20T16:26:42.463Z,3.87
2018-11-20T16:29:34.954Z,4.03
2018-11-20T16:32:31.184Z,3.50
2018-11-20T16:35:18.604Z,4.17
2018-11-20T16:37:56.624Z,3.30
2018-11-20T16:40:34.701Z,3.77
2018-11-20T16:43:24.955Z,3.30
2018-11-20T16:46:17.926Z,3.07
2018-11-20T16:49:03.789Z,3.07
2018-11-20T16:51:49.776Z,3.80
2018-11-20T16:54:26.817Z,3.33
2018-11-20T16:57:13.070Z,4.27
2018-11-20T17:00:03.266Z,3.60
2018-11-20T17:02:49.345Z,3.77
2018-11-20T17:05:38.765Z,3.90
2018-11-20T17:08:26.210Z,4.13
2018-11-20T17:11:08.275Z,4.53
2018-11-20T17:14:10.977Z,3.53
2018-11-20T17:17:01.097Z,3.87
2018-11-20T17:19:54.123Z,4.10
2018-11-20T17:22:53.665Z,4.10
2018-11-20T17:25:39.727Z,3.87
2018-11-20T17:28:26.087Z,3.93
2018-11-20T17:31:12.050Z,4.40
2018-11-20T17:33:58.340Z,3.23
2018-11-20T17:36:44.377Z,4.00
2018-11-20T17:39:30.506Z,3.43
2018-11-20T17:42:16.925Z,3.90
2018-11-20T17:45:22.439Z,3.57
2018-11-20T17:48:24.785Z,3.53
2018-11-20T17:51:27.523Z,4.00
2018-11-20T17:54:21.173Z,3.60
2018-11-20T17:57:11.033Z,4.33
2018-11-20T17:59:51.375Z,3.53
2018-11-20T18:02:50.784Z,3.57
2018-11-20T18:05:56.443Z,3.40
2018-11-20T18:08:53.634Z,3.80
2018-11-20T18:11:36.010Z,3.57
2018-11-20T18:14:22.446Z,3.80
2018-11-20T18:17:08.793Z,4.03
2018-11-20T18:19:54.640Z,3.33
2018-11-20T18:22:39.960Z,3.40
2018-11-20T18:25:27.418Z,3.90
2018-11-20T18:28:13.498Z,3.37
2018-11-20T18:30:50.905Z,4.00
2018-11-20T18:33:35.813Z,3.40
2018-11-20T18:36:17.138Z,3.80
2018-11-20T18:39:13.334Z,3.70
2018-11-20T18:42:03.575Z,4.17
2018-11-20T18:44:45.927Z,4.57
2018-11-20T18:47:51.483Z,3.80
2018-11-20T18:50:31.027Z,4.53
2018-11-20T18:53:08.232Z,4.60
2018-11-20T18:56:04.794Z,3.53
2018-11-20T18:58:52.242Z,3.90
2018-11-20T19:01:38.558Z,3.80
2018-11-20T19:04:28.814Z,3.47
2018-11-20T19:07:14.695Z,4.50
2018-11-20T19:09:57.765Z,4.07
2018-11-20T19:12:44.526Z,4.03
2018-11-20T19:15:37.989Z,4.20
2018-11-20T19:18:37.155Z,4.37
2018-11-20T19:21:27.299Z,3.50
2018-11-20T19:24:13.503Z,4.47
2018-11-20T19:27:01.002Z,4.30
2018-11-20T19:29:46.923Z,3.97
2018-11-20T19:32:25.282Z,4.10
2018-11-20T19:35:18.428Z,4.27
2018-11-20T19:38:04.672Z,4.27
2018-11-20T19:40:55.058Z,4.47
2018-11-20T19:43:35.274Z,4.50
2018-11-20T19:46:21.232Z,4.07
2018-11-20T19:49:27.060Z,5.00
2018-11-20T19:52:07.450Z,4.57
2018-11-20T19:54:53.727Z,4.10
2018-11-20T19:57:56.269Z,5.30
2018-11-20T20:00:42.536Z,3.73
2018-11-20T20:03:28.674Z,3.93
2018-11-20T20:06:12.362Z,4.80
2018-11-20T20:09:04.956Z,4.10
2018-11-20T20:11:41.576Z,4.60
2018-11-20T20:14:34.592Z,3.73
2018-11-20T20:17:20.955Z,4.30
2018-11-20T20:20:17.350Z,4.70
2018-11-20T20:23:13.601Z,4.40
2018-11-20T20:25:59.885Z,4.60
2018-11-20T20:29:02.576Z,5.03
2018-11-20T20:31:49.108Z,4.77
2018-11-20T20:34:36.548Z,4.33
2018-11-20T20:37:32.863Z,4.47
2018-11-20T20:40:23.107Z,4.60
2018-11-20T20:43:19.518Z,4.20
2018-11-20T20:46:14.499Z,4.80
2018-11-20T20:49:00.892Z,5.10
2018-11-20T20:52:00.543Z,4.83
2018-11-20T20:55:06.172Z,4.40
2018-11-20T20:58:05.441Z,4.43
2018-11-20T21:01:08.529Z,4.80
2018-11-20T21:04:16.312Z,4.83
2018-11-20T21:06:52.801Z,4.40
2018-11-20T21:09:32.306Z,4.23
2018-11-20T21:12:16.386Z,4.90
2018-11-20T21:15:03.829Z,4.47
2018-11-20T21:17:49.819Z,4.33
2018-11-20T21:20:46.313Z,4.50
2018-11-20T21:23:36.576Z,5.20
2018-11-20T21:26:15.536Z,4.23
2018-11-20T21:29:02.986Z,4.80
2018-11-20T21:32:08.625Z,5.80
2018-11-20T21:35:11.047Z,5.37
2018-11-20T21:38:16.991Z,4.93
2018-11-20T21:41:02.924Z,4.43
2018-11-20T21:44:05.379Z,4.87
2018-11-20T21:47:10.985Z,5.10
2018-11-20T21:49:57.031Z,5.43
2018-11-20T21:52:36.908Z,4.53
2018-11-20T21:55:16.350Z,5.10
2018-11-20T21:58:06.612Z,4.23
2018-11-20T22:01:01.263Z,5.63
2018-11-20T22:03:47.571Z,4.47
2018-11-20T22:06:33.632Z,5.20
2018-11-20T22:09:22.150Z,4.87
2018-11-20T22:12:12.249Z,5.00
2018-11-20T22:14:52.487Z,5.20
2018-11-20T22:17:38.574Z,4.80
2018-11-20T22:20:17.834Z,4.60
2018-11-20T22:22:56.776Z,4.83
2018-11-20T22:25:44.246Z,4.90
2018-11-20T22:28:33.141Z,5.10
2018-11-20T22:31:38.955Z,5.70
2018-11-20T22:34:25.043Z,4.73
2018-11-20T22:37:11.596Z,4.80
2018-11-20T22:40:08.233Z,5.17
2018-11-20T22:42:54.147Z,4.80
2018-11-20T22:45:40.751Z,4.70
2018-11-20T22:48:34.821Z,5.40
2018-11-20T22:51:16.865Z,4.40
2018-11-20T22:54:02.970Z,4.80
2018-11-20T22:56:48.726Z,4.93
2018-11-20T22:59:30.245Z,4.70
2018-11-20T23:02:28.650Z,4.73
2018-11-20T23:05:13.961Z,5.10
2018-11-20T23:07:55.997Z,4.07
2018-11-20T23:10:25.915Z,4.53
2018-11-20T23:12:54.665Z,4.97
2018-11-20T23:15:23.816Z,4.53
2018-11-20T23:17:52.556Z,5.00
2018-11-20T23:20:20.800Z,4.50
2018-11-20T23:22:49.054Z,4.50
2018-11-20T23:25:17.326Z,5.23
2018-11-20T23:27:45.667Z,5.17
2018-11-20T23:30:15.125Z,3.90
2018-11-20T23:32:43.453Z,4.90
2018-11-20T23:35:12.674Z,5.27
2018-11-20T23:37:41.744Z,5.23
2018-11-20T23:40:11.488Z,5.10
2018-11-20T23:42:39.735Z,4.67
2018-11-20T23:45:10.289Z,5.07
2018-11-20T23:47:38.552Z,4.53
2018-11-20T23:50:08.764Z,4.63
2018-11-20T23:52:37.221Z,4.70
2018-11-20T23:55:07.476Z,5.27
2018-11-20T23:57:35.732Z,4.97
